ORER/EBL METAR and TAF weather

Enter ICAO airport designator
Station Type Date Time Source
ORER METAR 2021/08/05 03:00 UTC NOAA

ORER 050300Z 01004KT 8000 NSC 32/09 Q1006


Station Type Date Time Source
ORER Decoded METAR 2021/08/05 03:00 UTC NOAA

Station name not available
Aug 04, 2021 - 11:00 PM EDT / 2021.08.05 0300 UTC
Wind: from the N (010 degrees) at 5 MPH (4 KT):0
Visibility: 4 mile(s):0
Temperature: 89 F (32 C)
Dew Point: 48 F (9 C)
Relative Humidity: 24%
Pressure (altimeter): 29.71 in. Hg (1006 hPa)
ob: ORER 050300Z 01004KT 8000 NSC 32/09 Q1006
cycle: 3

Station Type Date Time Source
ORER TAF 2021/08/04 18:24 UTC NOAA

TAF ORER 041700Z 0418/0518 30006KT 8000 FEW040
BECMG 0420/0422 04012KT NSC
BECMG 0506/0508 09010KT FEW040

Example: see airport list